createdAt,value
2023-04-12T00:02:06.727Z,4.30
2023-04-12T00:04:35.968Z,2.78
2023-04-12T00:07:03.274Z,3.12
2023-04-12T00:09:32.986Z,2.83
2023-04-12T00:12:00.404Z,2.22
2023-04-12T00:14:27.628Z,5.65
2023-04-12T00:16:55.264Z,2.97
2023-04-12T00:19:25.862Z,4.10
2023-04-12T00:21:53.020Z,4.00
2023-04-12T00:24:20.176Z,3.05
2023-04-12T00:26:47.598Z,4.50
2023-04-12T00:29:16.124Z,2.80
2023-04-12T00:31:43.269Z,3.22
2023-04-12T00:34:10.685Z,3.55
2023-04-12T00:36:37.879Z,4.03
2023-04-12T00:39:05.008Z,3.62
2023-04-12T00:41:32.419Z,4.87
2023-04-12T00:43:59.899Z,2.62
2023-04-12T00:46:29.576Z,3.78
2023-04-12T00:48:57.837Z,3.30
2023-04-12T00:51:25.545Z,3.40
2023-04-12T00:53:58.159Z,4.18
2023-04-12T00:56:27.827Z,2.90
2023-04-12T00:58:56.667Z,4.35
2023-04-12T01:01:24.345Z,3.15
2023-04-12T01:03:53.528Z,4.78
2023-04-12T01:06:27.055Z,3.97
2023-04-12T01:09:16.624Z,3.17
2023-04-12T01:12:20.049Z,4.18
2023-04-12T01:15:12.247Z,3.05
2023-04-12T01:17:47.877Z,2.70
2023-04-12T01:20:19.958Z,5.57
2023-04-12T01:22:57.036Z,3.33
2023-04-12T01:25:51.127Z,5.05
2023-04-12T01:28:22.989Z,6.62
2023-04-12T01:30:54.185Z,5.50
2023-04-12T01:33:22.349Z,3.85
2023-04-12T01:35:50.102Z,3.28
2023-04-12T01:38:17.887Z,4.85
2023-04-12T01:40:45.216Z,3.80
2023-04-12T01:43:14.086Z,4.28
2023-04-12T01:45:41.952Z,4.90
2023-04-12T01:48:11.552Z,3.37
2023-04-12T01:50:41.815Z,3.53
2023-04-12T01:53:15.239Z,3.92
2023-04-12T01:55:45.858Z,5.78
2023-04-12T01:58:15.461Z,3.67
2023-04-12T02:00:44.072Z,3.87
2023-04-12T02:03:12.562Z,2.47
2023-04-12T02:05:40.060Z,5.43
2023-04-12T02:08:07.542Z,3.25
2023-04-12T02:10:36.751Z,3.90
2023-04-12T02:13:04.274Z,4.25
2023-04-12T02:15:31.580Z,4.20
2023-04-12T02:18:00.453Z,5.12
2023-04-12T02:20:29.409Z,4.57
2023-04-12T02:22:56.625Z,3.62
2023-04-12T02:25:23.982Z,5.95
2023-04-12T02:27:51.502Z,5.93
2023-04-12T02:30:19.014Z,5.30
2023-04-12T02:32:48.210Z,4.32
2023-04-12T02:35:19.078Z,6.68
2023-04-12T02:37:48.459Z,5.60
2023-04-12T02:40:16.177Z,6.40
2023-04-12T02:42:44.501Z,5.43
2023-04-12T02:45:12.456Z,7.45
2023-04-12T02:47:41.669Z,5.53
2023-04-12T02:50:09.372Z,4.75
2023-04-12T02:52:37.709Z,5.40
2023-04-12T02:55:06.040Z,5.45
2023-04-12T02:57:33.343Z,5.12
2023-04-12T03:00:01.649Z,4.80
2023-04-12T03:02:29.813Z,5.35
2023-04-12T03:04:58.615Z,6.53
2023-04-12T03:07:26.290Z,6.25
2023-04-12T03:09:53.800Z,4.05
2023-04-12T03:12:21.222Z,5.25
2023-04-12T03:14:49.155Z,6.00
2023-04-12T03:17:17.492Z,5.50
2023-04-12T03:19:44.857Z,4.95
2023-04-12T03:22:23.409Z,6.00
2023-04-12T03:24:51.750Z,5.28
2023-04-12T03:27:20.405Z,6.10
2023-04-12T03:29:47.886Z,4.22
2023-04-12T03:32:16.622Z,5.62
2023-04-12T03:34:45.758Z,7.22
2023-04-12T03:37:13.924Z,5.53
2023-04-12T03:39:41.829Z,5.37
2023-04-12T03:42:18.525Z,5.95
2023-04-12T03:44:54.042Z,5.20
2023-04-12T03:47:21.660Z,5.72
2023-04-12T03:50:01.783Z,7.22
2023-04-12T03:52:37.070Z,4.53
2023-04-12T03:55:07.348Z,5.07
2023-04-12T03:57:35.377Z,4.68
2023-04-12T04:00:08.622Z,6.53
2023-04-12T04:02:47.415Z,10.93
2023-04-12T04:05:15.858Z,4.57
2023-04-12T04:07:44.086Z,5.93
2023-04-12T04:10:12.471Z,5.37
2023-04-12T04:12:40.447Z,8.18
2023-04-12T04:15:10.403Z,7.57
2023-04-12T04:17:37.691Z,7.93
2023-04-12T04:20:07.452Z,4.53
2023-04-12T04:22:35.338Z,5.10
2023-04-12T04:25:03.064Z,6.55
2023-04-12T04:27:34.276Z,5.05
2023-04-12T04:30:02.699Z,35.17
2023-04-12T04:32:30.426Z,5.90
2023-04-12T04:35:01.149Z,5.30
2023-04-12T04:37:30.780Z,7.72
2023-04-12T04:39:58.914Z,6.75
2023-04-12T04:42:26.427Z,10.10
2023-04-12T04:45:02.676Z,6.82
2023-04-12T04:47:31.611Z,6.05
2023-04-12T04:50:00.010Z,6.78
2023-04-12T04:52:27.611Z,7.57
2023-04-12T04:54:57.787Z,5.37
2023-04-12T04:57:26.772Z,4.43
2023-04-12T04:59:55.140Z,4.45
2023-04-12T05:02:23.232Z,6.60
2023-04-12T05:04:51.321Z,5.82
2023-04-12T05:07:19.765Z,5.50
2023-04-12T05:09:47.351Z,5.43
2023-04-12T05:12:15.018Z,6.32
2023-04-12T05:14:47.057Z,7.43
2023-04-12T05:19:44.871Z,7.22
2023-04-12T05:22:13.038Z,7.22
2023-04-12T05:24:40.985Z,10.25
2023-04-12T05:27:08.952Z,8.55
2023-04-12T05:29:36.313Z,5.78
2023-04-12T05:32:04.476Z,6.43
2023-04-12T05:34:31.713Z,7.75
2023-04-12T05:36:59.975Z,6.80
2023-04-12T05:39:28.556Z,6.93
2023-04-12T05:41:55.863Z,6.70
2023-04-12T05:44:25.679Z,5.10
2023-04-12T05:46:53.202Z,6.00
2023-04-12T05:49:20.516Z,6.78
2023-04-12T05:51:48.314Z,5.72
2023-04-12T05:54:20.964Z,5.50
2023-04-12T05:56:48.503Z,8.73
2023-04-12T05:59:16.400Z,6.43
2023-04-12T06:01:44.992Z,7.90
2023-04-12T06:04:12.884Z,8.70
2023-04-12T06:06:40.418Z,6.75
2023-04-12T06:09:07.637Z,6.43
2023-04-12T06:11:35.883Z,6.85
2023-04-12T06:14:03.227Z,9.90
2023-04-12T06:16:30.910Z,5.47
2023-04-12T06:18:58.997Z,6.57
2023-04-12T06:21:27.014Z,5.53
2023-04-12T06:23:54.419Z,6.12
2023-04-12T06:26:21.950Z,6.50
2023-04-12T06:28:49.273Z,8.25
2023-04-12T06:31:17.234Z,6.35
2023-04-12T06:33:45.335Z,7.00
2023-04-12T06:36:12.795Z,6.22
2023-04-12T06:38:40.178Z,5.65
2023-04-12T06:41:07.703Z,7.10
2023-04-12T06:43:35.048Z,6.85
2023-04-12T06:46:05.507Z,6.85
2023-04-12T06:48:32.990Z,6.32
2023-04-12T06:51:00.465Z,5.90
2023-04-12T06:53:27.689Z,5.70
2023-04-12T06:55:55.247Z,8.35
2023-04-12T06:58:22.458Z,7.43
2023-04-12T07:00:49.771Z,7.10
2023-04-12T07:03:17.879Z,6.05
2023-04-12T07:05:45.218Z,6.78
2023-04-12T07:08:12.411Z,5.00
2023-04-12T07:10:39.896Z,8.00
2023-04-12T07:13:08.324Z,6.93
2023-04-12T07:15:35.503Z,13.68
2023-04-12T07:18:03.040Z,5.95
2023-04-12T07:20:30.259Z,5.40
2023-04-12T07:22:57.572Z,6.35
2023-04-12T07:25:25.240Z,7.03
2023-04-12T07:27:52.501Z,13.35
2023-04-12T07:30:19.780Z,8.80
2023-04-12T07:32:47.372Z,6.55
2023-04-12T07:35:14.915Z,8.98
2023-04-12T07:37:42.133Z,8.18
2023-04-12T07:40:09.769Z,6.47
2023-04-12T07:42:36.961Z,6.00
2023-04-12T07:45:04.457Z,6.87
2023-04-12T07:47:32.946Z,5.30
2023-04-12T07:50:00.277Z,8.60
2023-04-12T07:52:27.517Z,5.55
2023-04-12T07:54:55.360Z,4.18
2023-04-12T07:57:23.522Z,6.65
2023-04-12T07:59:50.755Z,7.80
2023-04-12T08:02:27.786Z,4.80
2023-04-12T08:04:55.595Z,6.07
2023-04-12T08:07:23.974Z,7.22
2023-04-12T08:09:51.299Z,9.05
2023-04-12T08:12:18.886Z,3.33
2023-04-12T08:14:46.261Z,8.20
2023-04-12T08:17:13.604Z,3.78
2023-04-12T08:19:41.200Z,3.10
2023-04-12T08:22:08.385Z,8.82
2023-04-12T08:24:35.782Z,6.97
2023-04-12T08:27:03.583Z,4.95
2023-04-12T08:29:30.724Z,3.53
2023-04-12T08:32:00.786Z,3.87
2023-04-12T08:34:28.257Z,3.15
2023-04-12T08:36:55.975Z,5.07
2023-04-12T08:39:23.217Z,6.70
2023-04-12T08:41:50.924Z,6.68
2023-04-12T08:44:18.306Z,3.92
2023-04-12T08:46:46.002Z,3.53
2023-04-12T08:49:13.769Z,4.75
2023-04-12T08:51:41.020Z,3.72
2023-04-12T08:54:08.167Z,3.62
2023-04-12T08:56:36.500Z,4.12
2023-04-12T08:59:04.518Z,2.58
2023-04-12T09:01:31.711Z,3.37
2023-04-12T09:03:59.738Z,3.75
2023-04-12T09:06:27.486Z,3.83
2023-04-12T09:08:55.982Z,5.85
2023-04-12T09:11:28.076Z,5.53
2023-04-12T09:13:56.608Z,6.68
2023-04-12T09:16:43.069Z,2.60
2023-04-12T09:19:10.324Z,3.83
2023-04-12T09:21:52.444Z,2.58
2023-04-12T09:24:19.877Z,2.70
2023-04-12T09:26:47.418Z,2.58
2023-04-12T09:29:27.659Z,2.80
2023-04-12T09:32:07.650Z,2.37
2023-04-12T09:34:36.077Z,2.58
2023-04-12T09:37:14.726Z,6.30
2023-04-12T09:39:42.504Z,2.30
2023-04-12T09:42:25.466Z,2.33
2023-04-12T09:44:58.722Z,2.90
2023-04-12T09:47:40.026Z,4.35
2023-04-12T09:50:09.803Z,2.55
2023-04-12T09:52:38.932Z,2.85
2023-04-12T09:55:10.875Z,3.85
2023-04-12T09:57:41.018Z,3.45
2023-04-12T10:00:17.536Z,3.47
2023-04-12T10:02:51.837Z,8.25
2023-04-12T10:05:21.477Z,2.65
2023-04-12T10:07:50.321Z,2.53
2023-04-12T10:10:18.689Z,2.35
2023-04-12T10:12:47.771Z,2.85
2023-04-12T10:15:20.959Z,2.85
2023-04-12T10:17:51.942Z,3.15
2023-04-12T10:20:21.143Z,4.72
2023-04-12T10:22:50.327Z,4.30
2023-04-12T10:25:22.712Z,3.67
2023-04-12T10:27:50.647Z,5.55
2023-04-12T10:30:28.633Z,7.50
2023-04-12T10:33:05.497Z,2.85
2023-04-12T10:35:53.874Z,4.18
2023-04-12T10:38:21.999Z,3.45
2023-04-12T10:41:12.411Z,3.92
2023-04-12T10:43:41.441Z,3.53
2023-04-12T10:46:08.838Z,4.85
2023-04-12T10:48:40.152Z,2.35
2023-04-12T10:51:26.746Z,2.42
2023-04-12T10:54:07.334Z,2.75
2023-04-12T10:56:38.859Z,4.20
2023-04-12T10:59:13.071Z,2.50
2023-04-12T11:01:42.101Z,2.50
2023-04-12T11:04:17.117Z,3.72
2023-04-12T11:06:49.749Z,3.65
2023-04-12T11:09:29.608Z,3.90
2023-04-12T11:12:04.090Z,3.33
2023-04-12T11:17:17.431Z,2.53
2023-04-12T11:19:49.011Z,5.82
2023-04-12T11:22:17.942Z,3.25
2023-04-12T11:24:52.829Z,5.82
2023-04-12T11:27:21.877Z,3.78
2023-04-12T11:29:51.566Z,3.97
2023-04-12T11:32:19.278Z,2.58
2023-04-12T11:34:47.690Z,2.12
2023-04-12T11:37:15.094Z,3.12
2023-04-12T11:39:44.158Z,4.55
2023-04-12T11:42:29.774Z,4.35
2023-04-12T11:45:01.082Z,4.15
2023-04-12T11:47:30.939Z,3.35
2023-04-12T11:49:59.178Z,4.47
2023-04-12T11:52:31.089Z,6.20
2023-04-12T11:55:05.220Z,5.72
2023-04-12T11:57:32.823Z,7.68
2023-04-12T12:00:01.597Z,4.28
2023-04-12T12:02:32.973Z,3.55
2023-04-12T12:05:03.021Z,2.40
2023-04-12T12:07:30.789Z,5.22
2023-04-12T12:09:58.162Z,3.78
2023-04-12T12:12:25.891Z,3.87
2023-04-12T12:14:53.056Z,8.65
2023-04-12T12:17:20.495Z,7.35
2023-04-12T12:19:48.482Z,4.18
2023-04-12T12:22:21.858Z,4.00
2023-04-12T12:24:57.103Z,4.07
2023-04-12T12:27:30.434Z,3.12
2023-04-12T12:30:01.229Z,3.33
2023-04-12T12:32:33.423Z,3.92
2023-04-12T12:35:01.681Z,3.40
2023-04-12T12:37:29.874Z,4.22
2023-04-12T12:40:16.812Z,5.22
2023-04-12T12:42:55.148Z,13.60
2023-04-12T12:45:24.713Z,4.15
2023-04-12T12:47:53.580Z,7.10
2023-04-12T12:50:24.854Z,6.80
2023-04-12T12:52:53.491Z,4.85
2023-04-12T12:55:22.020Z,5.07
2023-04-12T12:58:05.883Z,4.55
2023-04-12T13:00:36.462Z,8.80
2023-04-12T13:03:04.243Z,4.30
2023-04-12T13:05:31.865Z,3.17
2023-04-12T13:07:59.305Z,3.47
2023-04-12T13:10:27.438Z,3.67
2023-04-12T13:12:54.643Z,3.25
2023-04-12T13:15:24.164Z,4.37
2023-04-12T13:17:52.450Z,2.78
2023-04-12T13:20:19.839Z,6.47
2023-04-12T13:22:47.319Z,2.50
2023-04-12T13:25:14.566Z,3.08
2023-04-12T13:27:41.767Z,6.25
2023-04-12T13:30:11.709Z,3.03
2023-04-12T13:32:38.851Z,2.45
2023-04-12T13:35:06.452Z,3.62
2023-04-12T13:37:34.196Z,3.87
2023-04-12T13:40:01.323Z,6.03
2023-04-12T13:42:28.595Z,2.87
2023-04-12T13:44:56.942Z,4.68
2023-04-12T13:47:24.215Z,3.55
2023-04-12T13:49:51.532Z,5.25
2023-04-12T13:52:18.931Z,3.97
2023-04-12T13:54:46.184Z,3.20
2023-04-12T13:57:13.356Z,3.47
2023-04-12T13:59:40.932Z,17.20
2023-04-12T14:02:08.108Z,2.83
2023-04-12T14:04:35.686Z,3.10
2023-04-12T14:07:02.991Z,3.87
2023-04-12T14:09:32.163Z,6.18
2023-04-12T14:12:01.474Z,6.00
2023-04-12T14:14:28.758Z,7.90
2023-04-12T14:17:01.843Z,2.92
2023-04-12T14:19:29.409Z,7.32
2023-04-12T14:21:56.865Z,5.87
2023-04-12T14:24:24.120Z,4.93
2023-04-12T14:26:51.555Z,2.97
2023-04-12T14:29:19.089Z,3.97
2023-04-12T14:31:46.517Z,6.65
2023-04-12T14:34:14.095Z,4.40
2023-04-12T14:36:41.323Z,4.95
2023-04-12T14:39:11.630Z,8.57
2023-04-12T14:41:40.668Z,4.00
2023-04-12T14:44:07.838Z,3.22
2023-04-12T14:46:34.997Z,5.72
2023-04-12T14:49:02.654Z,4.85
2023-04-12T14:51:29.851Z,3.37
2023-04-12T14:53:57.870Z,7.87
2023-04-12T14:56:29.205Z,3.22
2023-04-12T14:58:57.596Z,4.45
2023-04-12T15:01:25.799Z,4.62
2023-04-12T15:03:53.840Z,3.45
2023-04-12T15:06:23.541Z,4.93
2023-04-12T15:08:55.020Z,12.95
2023-04-12T15:11:26.512Z,5.57
2023-04-12T15:13:54.979Z,5.90
2023-04-12T15:16:23.407Z,5.37
2023-04-12T15:18:51.355Z,5.43
2023-04-12T15:21:18.706Z,6.43
2023-04-12T15:23:47.251Z,3.95
2023-04-12T15:26:14.687Z,4.10
2023-04-12T15:28:42.353Z,3.65
2023-04-12T15:31:11.961Z,2.67
2023-04-12T15:33:39.218Z,3.72
2023-04-12T15:36:06.766Z,5.43
2023-04-12T15:38:41.371Z,5.12
2023-04-12T15:41:08.940Z,17.80
2023-04-12T15:43:37.038Z,5.45
2023-04-12T15:46:04.443Z,3.50
2023-04-12T15:48:31.772Z,16.00
2023-04-12T15:50:59.508Z,23.73
2023-04-12T15:53:30.314Z,4.65
2023-04-12T15:55:57.721Z,9.63
2023-04-12T15:58:26.982Z,5.80
2023-04-12T16:00:54.511Z,8.52
2023-04-12T16:03:26.229Z,9.38
2023-04-12T16:05:54.341Z,5.15
2023-04-12T16:08:22.277Z,9.88
2023-04-12T16:10:50.766Z,7.20
2023-04-12T16:13:18.499Z,6.32
2023-04-12T16:15:47.708Z,7.12
2023-04-12T16:18:17.357Z,5.05
2023-04-12T16:20:45.331Z,7.07
2023-04-12T16:23:14.805Z,4.78
2023-04-12T16:25:42.102Z,4.82
2023-04-12T16:28:12.393Z,16.40
2023-04-12T16:30:40.172Z,16.02
2023-04-12T16:33:07.944Z,10.45
2023-04-12T16:35:35.770Z,9.52
2023-04-12T16:38:05.213Z,16.95
2023-04-12T16:40:32.736Z,10.63
2023-04-12T16:43:00.299Z,17.80
2023-04-12T16:45:27.854Z,47.62
2023-04-12T16:47:58.368Z,33.38
2023-04-12T16:50:31.826Z,34.97
2023-04-12T16:53:00.769Z,61.40
2023-04-12T16:55:30.031Z,96.07
2023-04-12T16:57:58.340Z,73.70
2023-04-12T17:00:30.200Z,55.25
2023-04-12T17:02:58.516Z,27.45
2023-04-12T17:05:27.277Z,38.22
2023-04-12T17:07:55.176Z,40.10
2023-04-12T17:10:24.576Z,35.40
2023-04-12T17:12:55.270Z,18.27
2023-04-12T17:15:23.151Z,45.15
2023-04-12T17:18:02.353Z,39.88
2023-04-12T17:20:30.796Z,34.58
2023-04-12T17:22:58.931Z,31.25
2023-04-12T17:25:31.197Z,25.20
2023-04-12T17:28:05.674Z,30.40
2023-04-12T17:30:33.094Z,35.28
2023-04-12T17:33:01.691Z,42.13
2023-04-12T17:35:29.462Z,50.60
2023-04-12T17:37:56.818Z,34.17
2023-04-12T17:40:24.293Z,30.35
2023-04-12T17:42:51.461Z,81.05
2023-04-12T17:45:21.525Z,73.12
2023-04-12T17:47:49.278Z,49.60
2023-04-12T17:50:17.557Z,55.10
2023-04-12T17:52:44.693Z,50.47
2023-04-12T17:55:12.891Z,58.33
2023-04-12T17:57:42.485Z,62.72
2023-04-12T18:00:11.826Z,37.50
2023-04-12T18:02:40.848Z,85.20
2023-04-12T18:05:08.827Z,42.25
2023-04-12T18:07:37.152Z,41.75
2023-04-12T18:10:05.365Z,29.85
2023-04-12T18:12:32.961Z,36.53
2023-04-12T18:15:02.491Z,39.25
2023-04-12T18:17:30.685Z,42.05
2023-04-12T18:20:02.574Z,73.60
2023-04-12T18:22:30.507Z,56.60
2023-04-12T18:25:00.391Z,34.63
2023-04-12T18:27:27.910Z,42.60
2023-04-12T18:29:56.642Z,44.72
2023-04-12T18:32:24.414Z,32.47
2023-04-12T18:34:51.855Z,40.42
2023-04-12T18:37:19.937Z,34.10
2023-04-12T18:39:47.985Z,25.45
2023-04-12T18:42:15.816Z,26.95
2023-04-12T18:44:44.893Z,18.90
2023-04-12T18:47:12.848Z,29.08
2023-04-12T18:49:40.214Z,27.58
2023-04-12T18:52:07.778Z,54.15
2023-04-12T18:54:36.013Z,36.88
2023-04-12T18:57:03.453Z,37.50
2023-04-12T18:59:30.886Z,32.42
2023-04-12T19:02:01.590Z,37.88
2023-04-12T19:04:28.742Z,32.28
2023-04-12T19:06:56.204Z,36.75
2023-04-12T19:09:23.647Z,28.38
2023-04-12T19:11:50.742Z,82.37
2023-04-12T19:14:17.864Z,47.28
2023-04-12T19:16:45.387Z,41.80
2023-04-12T19:19:15.512Z,32.90
2023-04-12T19:21:42.779Z,71.53
2023-04-12T19:24:10.759Z,108.70
2023-04-12T19:26:40.098Z,71.82
2023-04-12T19:29:07.225Z,36.55
2023-04-12T19:31:35.172Z,62.55
2023-04-12T19:34:02.751Z,73.62
2023-04-12T19:36:29.934Z,58.53
2023-04-12T19:38:57.926Z,38.25
2023-04-12T19:41:25.440Z,34.00
2023-04-12T19:43:52.751Z,32.85
2023-04-12T19:46:22.335Z,31.98
2023-04-12T19:48:49.725Z,23.48
2023-04-12T19:51:17.001Z,19.83
2023-04-12T19:53:46.272Z,25.40
2023-04-12T19:56:16.362Z,26.70
2023-04-12T19:58:44.537Z,36.10
2023-04-12T20:01:13.836Z,33.92
2023-04-12T20:03:43.855Z,34.10
2023-04-12T20:06:11.112Z,29.45
2023-04-12T20:08:39.584Z,81.10
2023-04-12T20:11:07.592Z,37.13
2023-04-12T20:13:36.250Z,34.22
2023-04-12T20:16:04.486Z,38.38
2023-04-12T20:18:32.674Z,37.45
2023-04-12T20:20:59.883Z,44.45
2023-04-12T20:23:28.350Z,44.70
2023-04-12T20:25:55.866Z,39.85
2023-04-12T20:28:23.423Z,40.28
2023-04-12T20:30:50.647Z,37.60
2023-04-12T20:33:19.864Z,37.70
2023-04-12T20:35:46.971Z,38.92
2023-04-12T20:38:15.154Z,34.92
2023-04-12T20:40:42.559Z,30.98
2023-04-12T20:43:10.514Z,38.72
2023-04-12T20:45:38.059Z,35.33
2023-04-12T20:48:05.783Z,35.17
2023-04-12T20:50:33.121Z,27.92
2023-04-12T20:53:00.321Z,24.73
2023-04-12T20:55:32.910Z,24.67
2023-04-12T20:58:00.799Z,26.02
2023-04-12T21:00:29.546Z,31.33
2023-04-12T21:02:58.314Z,32.00
2023-04-12T21:05:27.306Z,47.28
2023-04-12T21:07:54.900Z,27.25
2023-04-12T21:10:22.300Z,27.45
2023-04-12T21:12:50.101Z,28.50
2023-04-12T21:15:21.853Z,28.55
2023-04-12T21:17:50.687Z,24.52
2023-04-12T21:20:18.796Z,31.20
2023-04-12T21:22:47.870Z,27.90
2023-04-12T21:25:16.256Z,31.45
2023-04-12T21:27:46.256Z,34.35
2023-04-12T21:30:13.894Z,27.02
2023-04-12T21:32:42.817Z,32.35
2023-04-12T21:35:11.262Z,32.22
2023-04-12T21:37:39.473Z,28.17
2023-04-12T21:40:12.368Z,32.35
2023-04-12T21:42:40.969Z,27.75
2023-04-12T21:45:09.622Z,23.70
2023-04-12T21:47:39.371Z,24.25
2023-04-12T21:50:07.900Z,28.70
2023-04-12T21:52:35.062Z,25.83
2023-04-12T21:55:02.976Z,32.17
2023-04-12T21:57:34.166Z,30.02
2023-04-12T22:00:02.078Z,28.75
2023-04-12T22:02:39.199Z,44.53
2023-04-12T22:05:07.558Z,31.25
2023-04-12T22:07:35.292Z,25.80
2023-04-12T22:10:02.534Z,37.33
2023-04-12T22:12:29.999Z,35.45
2023-04-12T22:14:57.663Z,31.45
2023-04-12T22:17:24.994Z,32.30
2023-04-12T22:19:56.513Z,26.65
2023-04-12T22:22:24.796Z,27.33
2023-04-12T22:24:52.723Z,29.63
2023-04-12T22:27:20.199Z,46.15
2023-04-12T22:29:49.866Z,34.80
2023-04-12T22:32:16.994Z,35.22
2023-04-12T22:34:45.023Z,35.25
2023-04-12T22:37:13.594Z,33.92
2023-04-12T22:39:40.668Z,26.73
2023-04-12T22:42:08.060Z,28.27
2023-04-12T22:44:38.085Z,30.55
2023-04-12T22:47:07.106Z,29.02
2023-04-12T22:49:44.644Z,30.95
2023-04-12T22:52:12.118Z,33.72
2023-04-12T22:54:40.340Z,29.50
2023-04-12T22:57:07.594Z,32.13
2023-04-12T22:59:34.977Z,34.83
2023-04-12T23:02:02.697Z,30.20
2023-04-12T23:04:29.955Z,29.67
2023-04-12T23:06:57.170Z,33.88
2023-04-12T23:09:25.591Z,83.72
2023-04-12T23:11:52.826Z,58.20
2023-04-12T23:14:19.965Z,93.25
2023-04-12T23:16:47.469Z,77.35
2023-04-12T23:19:14.843Z,133.00
2023-04-12T23:21:42.164Z,44.60
2023-04-12T23:24:12.099Z,63.70
2023-04-12T23:26:39.445Z,38.00
2023-04-12T23:29:06.712Z,37.83
2023-04-12T23:31:34.263Z,35.10
2023-04-12T23:34:02.823Z,37.35
2023-04-12T23:36:30.635Z,41.92
2023-04-12T23:39:05.177Z,36.97
2023-04-12T23:41:32.367Z,30.35
2023-04-12T23:44:00.285Z,33.78
2023-04-12T23:46:27.981Z,37.42
2023-04-12T23:48:55.318Z,36.15
2023-04-12T23:51:22.841Z,33.03
2023-04-12T23:53:50.362Z,30.58
2023-04-12T23:56:17.584Z,27.33
2023-04-12T23:58:45.083Z,32.20
